Time;durP1;ratioP1;P1;durP2;ratioP2;P2;SDS_P1;SDS_P2;PMS_P1;PMS_P2;Temp;Humidity;BMP_temperature;BMP_pressure;BME280_temperature;BME280_humidity;BME280_pressure;Samples;Min_cycle;Max_cycle;Signal;HPM_P1;HPM_P2
2022/08/06 00:00:38;;;;;;;0.80;0.60;;;;;;;;;;4533613;28;20040;-62
2022/08/06 00:02:48;;;;;;;0.52;0.40;;;;;;;;;;4531551;28;20094;-62
2022/08/06 00:05:01;;;;;;;0.73;0.60;;;;;;;;;;4546358;28;20025;-62
2022/08/06 00:07:11;;;;;;;0.50;0.50;;;;;;;;;;4547765;28;20662;-62
2022/08/06 00:09:22;;;;;;;0.52;0.52;;;;;;;;;;4548008;28;20052;-62
2022/08/06 00:11:32;;;;;;;1.00;0.60;;;;;;;;;;4546927;28;28243;-62
2022/08/06 00:13:43;;;;;;;0.80;0.70;;;;;;;;;;4527929;28;20036;-62
2022/08/06 00:15:54;;;;;;;0.60;0.60;;;;;;;;;;4545426;28;20211;-63
2022/08/06 00:18:04;;;;;;;1.15;0.60;;;;;;;;;;4548357;28;20040;-63
2022/08/06 00:20:18;;;;;;;0.60;0.60;;;;;;;;;;4546936;28;20516;-62
2022/08/06 00:22:28;;;;;;;0.70;0.60;;;;;;;;;;4547479;28;20037;-62
2022/08/06 00:24:38;;;;;;;0.73;0.60;;;;;;;;;;4547634;28;20481;-62
2022/08/06 00:26:49;;;;;;;0.80;0.50;;;;;;;;;;4533684;28;20037;-63
2022/08/06 00:28:59;;;;;;;0.82;0.50;;;;;;;;;;4545568;28;20041;-62
2022/08/06 00:31:10;;;;;;;1.08;0.60;;;;;;;;;;4546650;28;20039;-62
2022/08/06 00:33:20;;;;;;;0.47;0.47;;;;;;;;;;4546090;28;20050;-61
2022/08/06 00:35:31;;;;;;;0.40;0.40;;;;;;;;;;4538009;28;20063;-62
2022/08/06 00:37:41;;;;;;;0.60;0.52;;;;;;;;;;4530849;28;20520;-62
2022/08/06 00:39:52;;;;;;;0.60;0.50;;;;;;;;;;4545963;28;20029;-62
2022/08/06 00:42:02;;;;;;;0.47;0.47;;;;;;;;;;4545633;28;20130;-62
2022/08/06 00:44:14;;;;;;;0.50;0.50;;;;;;;;;;4526777;28;20044;-63
2022/08/06 00:46:24;;;;;;;0.88;0.55;;;;;;;;;;4531995;28;20103;-62
2022/08/06 00:48:35;;;;;;;0.52;0.50;;;;;;;;;;4546254;28;20047;-62
2022/08/06 00:50:45;;;;;;;0.90;0.60;;;;;;;;;;4544496;28;20028;-62
2022/08/06 00:52:56;;;;;;;0.40;0.40;;;;;;;;;;4547422;28;20757;-62
2022/08/06 00:55:07;;;;;;;0.75;0.47;;;;;;;;;;4527933;28;20041;-62
2022/08/06 00:57:17;;;;;;;0.40;0.40;;;;;;;;;;4546012;28;21117;-62
2022/08/06 00:59:27;;;;;;;1.20;0.52;;;;;;;;;;4528960;28;20096;-62
2022/08/06 01:01:38;;;;;;;0.52;0.40;;;;;;;;;;4545184;28;20829;-62
2022/08/06 01:03:48;;;;;;;1.30;0.60;;;;;;;;;;4527526;28;20029;-62
2022/08/06 01:05:59;;;;;;;0.63;0.50;;;;;;;;;;4530594;28;20312;-62
2022/08/06 01:08:10;;;;;;;0.90;0.47;;;;;;;;;;4545176;28;20041;-62
2022/08/06 01:10:22;;;;;;;0.73;0.50;;;;;;;;;;4522700;28;20033;-62
2022/08/06 01:12:32;;;;;;;0.70;0.70;;;;;;;;;;4528875;28;20061;-62
2022/08/06 01:14:43;;;;;;;0.73;0.68;;;;;;;;;;4546356;28;20120;-62
2022/08/06 01:16:57;;;;;;;0.88;0.50;;;;;;;;;;4545008;28;20024;-62
2022/08/06 01:19:31;;;;;;;1.10;0.60;;;;;;;;;;4527885;28;20047;-62
2022/08/06 01:21:59;;;;;;;0.63;0.60;;;;;;;;;;4529525;28;20217;-62
2022/08/06 01:24:19;;;;;;;0.50;0.50;;;;;;;;;;4546651;28;20838;-62
2022/08/06 01:26:33;;;;;;;1.20;0.52;;;;;;;;;;4546391;28;20036;-62
2022/08/06 01:28:53;;;;;;;0.70;0.50;;;;;;;;;;4546596;28;20035;-62
2022/08/06 01:31:06;;;;;;;0.63;0.50;;;;;;;;;;4529617;28;20047;-62
2022/08/06 01:33:22;;;;;;;0.47;0.45;;;;;;;;;;4527646;28;20674;-62
2022/08/06 01:35:39;;;;;;;1.80;0.47;;;;;;;;;;4548779;28;20762;-62
2022/08/06 01:38:00;;;;;;;1.15;0.50;;;;;;;;;;4533200;28;20736;-62
2022/08/06 01:40:17;;;;;;;0.60;0.50;;;;;;;;;;4530160;28;20055;-62
2022/08/06 01:42:29;;;;;;;0.60;0.50;;;;;;;;;;4548148;28;20037;-62
2022/08/06 01:44:42;;;;;;;0.40;0.40;;;;;;;;;;4528190;28;20733;-62
2022/08/06 01:46:57;;;;;;;2.10;0.50;;;;;;;;;;4530036;28;20033;-63
2022/08/06 01:49:08;;;;;;;0.63;0.50;;;;;;;;;;4527286;28;20030;-62
2022/08/06 01:51:19;;;;;;;0.50;0.50;;;;;;;;;;4531657;28;20290;-62
2022/08/06 01:53:32;;;;;;;0.50;0.50;;;;;;;;;;4527445;28;20061;-62
2022/08/06 01:55:45;;;;;;;0.60;0.40;;;;;;;;;;4528210;28;20055;-62
2022/08/06 01:57:57;;;;;;;0.50;0.50;;;;;;;;;;4537827;28;20107;-62
2022/08/06 02:00:08;;;;;;;0.50;0.50;;;;;;;;;;4529338;28;20037;-62
2022/08/06 02:02:24;;;;;;;0.43;0.43;;;;;;;;;;4546492;28;20824;-62
2022/08/06 02:04:38;;;;;;;0.57;0.57;;;;;;;;;;4527715;28;20178;-62
2022/08/06 02:06:50;;;;;;;0.65;0.47;;;;;;;;;;4531426;28;20378;-62
2022/08/06 02:09:04;;;;;;;0.68;0.50;;;;;;;;;;4547419;28;20581;-62
2022/08/06 02:11:15;;;;;;;1.17;0.50;;;;;;;;;;4544576;28;20631;-62
2022/08/06 02:13:25;;;;;;;1.15;0.45;;;;;;;;;;4523988;28;20088;-63
2022/08/06 02:15:36;;;;;;;0.60;0.60;;;;;;;;;;4531279;28;20033;-62
2022/08/06 02:17:49;;;;;;;0.60;0.50;;;;;;;;;;4546371;28;20492;-62
2022/08/06 02:20:00;;;;;;;0.85;0.50;;;;;;;;;;4527894;28;20631;-63
2022/08/06 02:22:11;;;;;;;1.27;0.50;;;;;;;;;;4530470;28;20041;-62
2022/08/06 02:24:23;;;;;;;0.73;0.52;;;;;;;;;;4528186;28;20032;-62
2022/08/06 02:26:35;;;;;;;0.65;0.65;;;;;;;;;;4536502;28;20108;-62
2022/08/06 02:28:46;;;;;;;0.88;0.60;;;;;;;;;;4527475;28;20032;-62
2022/08/06 02:30:57;;;;;;;2.10;0.70;;;;;;;;;;4528232;28;20033;-63
2022/08/06 02:33:08;;;;;;;0.40;0.40;;;;;;;;;;4547807;28;20025;-62
2022/08/06 02:35:19;;;;;;;0.93;0.50;;;;;;;;;;4547421;28;20603;-62
2022/08/06 02:37:35;;;;;;;0.70;0.50;;;;;;;;;;4549126;28;20036;-62
2022/08/06 02:39:49;;;;;;;0.57;0.57;;;;;;;;;;4531506;28;20037;-62
2022/08/06 02:42:09;;;;;;;1.20;0.50;;;;;;;;;;4534057;28;20044;-62
2022/08/06 02:44:39;;;;;;;0.70;0.63;;;;;;;;;;4550513;28;20040;-62
2022/08/06 02:46:58;;;;;;;0.60;0.60;;;;;;;;;;4531988;28;20033;-62
2022/08/06 02:49:26;;;;;;;1.13;0.77;;;;;;;;;;4533683;28;20041;-62
2022/08/06 02:51:40;;;;;;;1.00;0.70;;;;;;;;;;4534554;28;20068;-62
2022/08/06 02:54:05;;;;;;;1.42;0.75;;;;;;;;;;4549045;28;20032;-62
2022/08/06 02:56:16;;;;;;;0.75;0.63;;;;;;;;;;4500840;28;20053;-62
2022/08/06 02:58:33;;;;;;;0.63;0.63;;;;;;;;;;4531627;28;20422;-62
2022/08/06 03:01:03;;;;;;;;;;;;;;;;;;4531352;28;20597;-62
2022/08/06 03:03:15;;;;;;;0.60;0.60;;;;;;;;;;4548442;28;20648;-62
2022/08/06 03:05:27;;;;;;;0.68;0.65;;;;;;;;;;4534176;28;20021;-62
2022/08/06 03:07:39;;;;;;;0.95;0.70;;;;;;;;;;4547688;28;20044;-62
2022/08/06 03:09:50;;;;;;;0.80;0.68;;;;;;;;;;4534252;28;20173;-62
2022/08/06 03:12:01;;;;;;;0.85;0.80;;;;;;;;;;4531983;28;20031;-63
2022/08/06 03:14:14;;;;;;;0.60;0.60;;;;;;;;;;4530698;28;20711;-62
2022/08/06 03:16:25;;;;;;;1.52;0.80;;;;;;;;;;4548691;28;20072;-62
2022/08/06 03:18:36;;;;;;;1.02;0.80;;;;;;;;;;4550530;28;20432;-62
2022/08/06 03:20:47;;;;;;;0.65;0.65;;;;;;;;;;4532061;28;20382;-62
2022/08/06 03:22:59;;;;;;;1.33;0.85;;;;;;;;;;4534665;28;20203;-62
2022/08/06 03:25:10;;;;;;;0.80;0.80;;;;;;;;;;4549124;28;20100;-62
2022/08/06 03:27:21;;;;;;;1.60;0.90;;;;;;;;;;4534566;28;20037;-62
2022/08/06 03:29:33;;;;;;;1.60;0.93;;;;;;;;;;4549232;28;20036;-62
2022/08/06 03:31:43;;;;;;;1.00;0.90;;;;;;;;;;4548665;28;20040;-63
2022/08/06 03:34:13;;;;;;;0.75;0.73;;;;;;;;;;4531064;28;20041;-62
2022/08/06 03:36:23;;;;;;;0.95;0.82;;;;;;;;;;4549239;28;20090;-62
2022/08/06 03:38:38;;;;;;;0.80;0.80;;;;;;;;;;4548274;28;20024;-62
2022/08/06 03:40:49;;;;;;;0.80;0.80;;;;;;;;;;4524675;28;20034;-62
2022/08/06 03:43:34;;;;;;;0.90;0.90;;;;;;;;;;4533543;28;20033;-62
2022/08/06 03:45:52;;;;;;;1.15;0.95;;;;;;;;;;4536017;28;20040;-62
2022/08/06 03:48:04;;;;;;;0.80;0.80;;;;;;;;;;4540156;28;20164;-62
2022/08/06 03:50:16;;;;;;;0.85;0.85;;;;;;;;;;4537323;28;20029;-62
2022/08/06 03:52:29;;;;;;;0.75;0.70;;;;;;;;;;4534467;28;20033;-62
2022/08/06 03:54:52;;;;;;;0.80;0.80;;;;;;;;;;4548023;28;20036;-62
2022/08/06 03:57:08;;;;;;;0.73;0.70;;;;;;;;;;4548022;28;20048;-62
2022/08/06 03:59:19;;;;;;;1.38;0.80;;;;;;;;;;4531686;28;20042;-62
2022/08/06 04:01:35;;;;;;;0.80;0.80;;;;;;;;;;4530857;28;20033;-62
2022/08/06 04:03:46;;;;;;;0.95;0.75;;;;;;;;;;4534532;28;20084;-62
2022/08/06 04:05:57;;;;;;;0.80;0.80;;;;;;;;;;4547626;28;20025;-62
2022/08/06 04:08:09;;;;;;;0.88;0.80;;;;;;;;;;4533382;28;20643;-62
2022/08/06 04:10:21;;;;;;;0.88;0.80;;;;;;;;;;4549088;28;20036;-62
2022/08/06 04:12:31;;;;;;;0.75;0.75;;;;;;;;;;4547841;28;20024;-63
2022/08/06 04:14:42;;;;;;;1.08;0.80;;;;;;;;;;4498930;28;20042;-63
2022/08/06 04:16:53;;;;;;;0.70;0.70;;;;;;;;;;4528984;28;20080;-62
2022/08/06 04:19:05;;;;;;;0.80;0.70;;;;;;;;;;4529505;28;20871;-63
2022/08/06 04:21:19;;;;;;;0.80;0.80;;;;;;;;;;4530163;28;20116;-62
2022/08/06 04:23:29;;;;;;;0.95;0.90;;;;;;;;;;4527476;28;20036;-62
2022/08/06 04:25:43;;;;;;;0.80;0.80;;;;;;;;;;4547050;28;20036;-62
2022/08/06 04:27:54;;;;;;;0.80;0.80;;;;;;;;;;4532962;28;20633;-62
2022/08/06 04:30:06;;;;;;;0.70;0.70;;;;;;;;;;4528509;28;20044;-63
2022/08/06 04:32:17;;;;;;;0.80;0.80;;;;;;;;;;4546659;28;20036;-63
2022/08/06 04:34:28;;;;;;;1.25;0.80;;;;;;;;;;4516017;28;20022;-62
2022/08/06 04:36:39;;;;;;;1.73;1.00;;;;;;;;;;4538720;28;20037;-63
2022/08/06 04:38:51;;;;;;;0.80;0.80;;;;;;;;;;4533109;28;20678;-62
2022/08/06 04:41:02;;;;;;;0.90;0.90;;;;;;;;;;4546008;28;20039;-62
2022/08/06 04:43:30;;;;;;;0.80;0.80;;;;;;;;;;4546377;28;20590;-63
2022/08/06 04:45:42;;;;;;;1.60;1.00;;;;;;;;;;4537622;28;20119;-63
2022/08/06 04:47:53;;;;;;;0.93;0.80;;;;;;;;;;4527643;28;20034;-62
2022/08/06 04:50:04;;;;;;;0.70;0.70;;;;;;;;;;4530819;28;20033;-62
2022/08/06 04:52:36;;;;;;;1.95;0.90;;;;;;;;;;4547255;28;20048;-63
2022/08/06 04:54:56;;;;;;;1.00;0.90;;;;;;;;;;4535317;28;20112;-62
2022/08/06 04:57:06;;;;;;;1.35;0.88;;;;;;;;;;4547455;28;20452;-63
2022/08/06 04:59:17;;;;;;;1.65;0.82;;;;;;;;;;4544642;28;20047;-63
2022/08/06 05:01:28;;;;;;;1.30;0.98;;;;;;;;;;4547111;28;20029;-62
2022/08/06 05:03:38;;;;;;;1.77;0.90;;;;;;;;;;4548113;28;20036;-62
2022/08/06 05:06:01;;;;;;;0.80;0.80;;;;;;;;;;4532310;28;27929;-63
2022/08/06 05:08:12;;;;;;;1.98;1.00;;;;;;;;;;4527638;28;20029;-62
2022/08/06 05:10:26;;;;;;;1.30;0.90;;;;;;;;;;4520168;28;20037;-61
2022/08/06 05:12:42;;;;;;;0.90;0.90;;;;;;;;;;4533216;28;20033;-63
2022/08/06 05:15:42;;;;;;;1.15;1.00;;;;;;;;;;4529187;28;20052;-62
2022/08/06 05:20:53;;;;;;;1.10;0.90;;;;;;;;;;4546415;28;20044;-62
2022/08/06 05:23:50;;;;;;;0.63;0.50;;;;;;;;;;4532939;28;20976;-62
2022/08/06 05:26:00;;;;;;;0.98;0.80;;;;;;;;;;4545218;28;20500;-63
2022/08/06 05:28:11;;;;;;;0.55;0.55;;;;;;;;;;4520039;28;20268;-63
2022/08/06 05:30:22;;;;;;;0.68;0.68;;;;;;;;;;4546581;28;20071;-72
2022/08/06 05:32:41;;;;;;;1.40;0.98;;;;;;;;;;4547122;28;20039;-62
2022/08/06 05:34:51;;;;;;;0.88;0.88;;;;;;;;;;4538272;28;20033;-61
2022/08/06 05:37:02;;;;;;;1.60;1.30;;;;;;;;;;4547570;28;20045;-62
2022/08/06 05:39:12;;;;;;;1.50;1.40;;;;;;;;;;4548089;28;20032;-62
2022/08/06 05:41:23;;;;;;;1.50;1.40;;;;;;;;;;4548858;28;20071;-62
2022/08/06 05:43:35;;;;;;;2.22;1.45;;;;;;;;;;4547510;28;20032;-61
2022/08/06 05:45:47;;;;;;;1.83;1.40;;;;;;;;;;4548365;28;20043;-61
2022/08/06 05:47:59;;;;;;;1.20;1.10;;;;;;;;;;4530616;28;20088;-62
2022/08/06 05:50:12;;;;;;;1.38;1.27;;;;;;;;;;4533345;28;20029;-62
2022/08/06 05:52:26;;;;;;;1.23;1.10;;;;;;;;;;4521991;28;20113;-62
2022/08/06 05:54:47;;;;;;;1.25;1.10;;;;;;;;;;4528649;28;20182;-61
2022/08/06 05:57:05;;;;;;;1.38;1.00;;;;;;;;;;4529051;28;20247;-61
2022/08/06 05:59:28;;;;;;;0.98;0.90;;;;;;;;;;4531062;28;20025;-61
2022/08/06 06:01:38;;;;;;;1.48;1.00;;;;;;;;;;4531335;28;20127;-62
2022/08/06 06:03:49;;;;;;;1.08;0.90;;;;;;;;;;4530123;28;20052;-61
2022/08/06 06:06:01;;;;;;;2.65;1.30;;;;;;;;;;4531241;28;20990;-61
2022/08/06 06:08:12;;;;;;;1.75;1.40;;;;;;;;;;4539014;28;20892;-61
2022/08/06 06:10:25;;;;;;;1.77;1.20;;;;;;;;;;4528269;28;20071;-62
2022/08/06 06:12:36;;;;;;;1.23;0.95;;;;;;;;;;4545502;28;20044;-60
2022/08/06 06:14:48;;;;;;;1.30;1.20;;;;;;;;;;4529040;28;20537;-62
2022/08/06 06:17:37;;;;;;;1.85;1.10;;;;;;;;;;4529106;28;21256;-61
2022/08/06 06:20:09;;;;;;;0.80;0.80;;;;;;;;;;4547452;28;20065;-61
2022/08/06 06:22:28;;;;;;;1.52;1.00;;;;;;;;;;4544371;28;20127;-61
2022/08/06 06:24:43;;;;;;;1.52;0.90;;;;;;;;;;4531897;28;20029;-61
2022/08/06 06:27:04;;;;;;;1.52;0.95;;;;;;;;;;4528408;28;20033;-61
2022/08/06 06:29:35;;;;;;;1.65;0.80;;;;;;;;;;4545587;28;20123;-61
2022/08/06 06:32:06;;;;;;;1.20;0.90;;;;;;;;;;4546287;28;20044;-61
2022/08/06 06:34:21;;;;;;;2.50;1.00;;;;;;;;;;4532322;28;20846;-61
2022/08/06 06:36:42;;;;;;;1.38;1.00;;;;;;;;;;4546152;28;20540;-61
2022/08/06 06:39:03;;;;;;;1.33;1.00;;;;;;;;;;4544413;28;20040;-64
2022/08/06 06:41:23;;;;;;;2.75;1.13;;;;;;;;;;4527394;28;20124;-61
2022/08/06 06:43:43;;;;;;;2.05;1.00;;;;;;;;;;4532366;28;21687;-61
2022/08/06 06:45:56;;;;;;;1.00;0.75;;;;;;;;;;4532258;28;20045;-61
2022/08/06 06:48:10;;;;;;;1.05;0.85;;;;;;;;;;4546797;28;20029;-61
2022/08/06 06:50:25;;;;;;;1.98;1.00;;;;;;;;;;4548033;28;20071;-60
2022/08/06 06:52:38;;;;;;;1.10;0.90;;;;;;;;;;4530558;28;20168;-61
2022/08/06 06:54:53;;;;;;;1.65;1.10;;;;;;;;;;4531387;28;21437;-61
2022/08/06 06:57:07;;;;;;;1.60;1.10;;;;;;;;;;4545287;28;20587;-61
2022/08/06 06:59:24;;;;;;;1.10;0.90;;;;;;;;;;4546995;28;20652;-61
2022/08/06 07:01:36;;;;;;;1.83;0.90;;;;;;;;;;4531005;28;20128;-61
2022/08/06 07:03:47;;;;;;;2.03;1.08;;;;;;;;;;4528861;28;20039;-61
2022/08/06 07:05:58;;;;;;;1.30;1.10;;;;;;;;;;4532726;28;20659;-60
2022/08/06 07:08:10;;;;;;;3.13;1.10;;;;;;;;;;4548385;28;20040;-61
2022/08/06 07:10:22;;;;;;;2.22;1.00;;;;;;;;;;4530858;28;20038;-60
2022/08/06 07:12:34;;;;;;;1.20;1.00;;;;;;;;;;4546922;28;20028;-60
2022/08/06 07:14:46;;;;;;;1.40;1.00;;;;;;;;;;4532413;28;20080;-61
2022/08/06 07:16:58;;;;;;;1.63;1.20;;;;;;;;;;4528891;28;20085;-60
2022/08/06 07:19:09;;;;;;;1.30;1.20;;;;;;;;;;4530700;28;20025;-61
2022/08/06 07:21:21;;;;;;;1.00;0.90;;;;;;;;;;4528375;28;20041;-61
2022/08/06 07:23:32;;;;;;;1.38;1.00;;;;;;;;;;4548601;28;20033;-61
2022/08/06 07:25:47;;;;;;;1.55;1.00;;;;;;;;;;4548724;28;20986;-61
2022/08/06 07:27:57;;;;;;;1.55;1.20;;;;;;;;;;4540586;28;20076;-60
2022/08/06 07:30:09;;;;;;;1.88;1.00;;;;;;;;;;4547994;28;20658;-61
2022/08/06 07:32:20;;;;;;;1.40;1.10;;;;;;;;;;4529752;28;20094;-61
2022/08/06 07:34:30;;;;;;;1.25;1.00;;;;;;;;;;4530808;28;20088;-61
2022/08/06 07:36:54;;;;;;;0.85;0.80;;;;;;;;;;4532843;28;20543;-65
2022/08/06 07:39:08;;;;;;;1.00;0.90;;;;;;;;;;4534338;28;20033;-64
2022/08/06 07:41:20;;;;;;;1.33;1.05;;;;;;;;;;4518541;28;20152;-65
2022/08/06 07:43:53;;;;;;;1.40;1.00;;;;;;;;;;4539887;28;20036;-64
2022/08/06 07:46:06;;;;;;;2.03;1.20;;;;;;;;;;4539549;28;20033;-64
2022/08/06 07:48:37;;;;;;;1.55;1.05;;;;;;;;;;4533847;28;20029;-63
2022/08/06 07:50:49;;;;;;;1.17;1.08;;;;;;;;;;4528697;28;20033;-64
2022/08/06 07:52:59;;;;;;;1.60;1.08;;;;;;;;;;4532455;28;20060;-64
2022/08/06 07:55:11;;;;;;;1.20;1.08;;;;;;;;;;4531456;28;20029;-64
2022/08/06 07:57:22;;;;;;;1.58;1.02;;;;;;;;;;4533111;28;20706;-63
2022/08/06 07:59:33;;;;;;;1.10;1.00;;;;;;;;;;4533645;28;20032;-63
2022/08/06 08:01:44;;;;;;;1.73;1.10;;;;;;;;;;4536026;28;20040;-63
2022/08/06 08:06:25;;;;;;;1.25;0.98;;;;;;;;;;4547446;28;20032;-63
2022/08/06 08:08:36;;;;;;;1.02;0.90;;;;;;;;;;4529716;28;20072;-63
2022/08/06 08:10:47;;;;;;;1.48;0.90;;;;;;;;;;4533503;28;20587;-63
2022/08/06 08:12:57;;;;;;;1.38;0.93;;;;;;;;;;4530629;28;20021;-63
2022/08/06 08:15:08;;;;;;;1.15;1.00;;;;;;;;;;4547253;28;20503;-63
2022/08/06 08:17:19;;;;;;;1.02;0.93;;;;;;;;;;4548594;28;20067;-63
2022/08/06 08:19:31;;;;;;;0.95;0.80;;;;;;;;;;4535011;28;20554;-63
2022/08/06 08:21:41;;;;;;;1.63;1.00;;;;;;;;;;4547681;28;20158;-63
2022/08/06 08:23:52;;;;;;;0.90;0.80;;;;;;;;;;4523314;28;20044;-63
2022/08/06 08:26:03;;;;;;;0.75;0.75;;;;;;;;;;4520957;28;20038;-63
2022/08/06 08:28:13;;;;;;;1.20;0.90;;;;;;;;;;4547507;28;20029;-63
2022/08/06 08:30:24;;;;;;;1.50;1.08;;;;;;;;;;4548027;28;20040;-63
2022/08/06 08:32:34;;;;;;;0.82;0.82;;;;;;;;;;4546540;28;20041;-64
2022/08/06 08:34:45;;;;;;;1.10;0.73;;;;;;;;;;4548353;28;20132;-63
2022/08/06 08:36:55;;;;;;;1.73;0.80;;;;;;;;;;4546538;28;20559;-63
2022/08/06 08:39:06;;;;;;;1.00;0.90;;;;;;;;;;4549422;28;20045;-63
2022/08/06 08:41:29;;;;;;;1.45;0.88;;;;;;;;;;4548082;28;20036;-63
2022/08/06 08:43:44;;;;;;;0.60;0.60;;;;;;;;;;4545350;28;20029;-63
2022/08/06 08:45:56;;;;;;;0.93;0.88;;;;;;;;;;4528265;28;20117;-63
2022/08/06 08:48:06;;;;;;;0.90;0.80;;;;;;;;;;4545239;28;20033;-64
2022/08/06 08:50:23;;;;;;;1.10;1.00;;;;;;;;;;4531316;28;20041;-63
2022/08/06 08:52:33;;;;;;;1.00;0.90;;;;;;;;;;4546182;28;20129;-63
2022/08/06 08:54:46;;;;;;;0.80;0.80;;;;;;;;;;4538964;28;20091;-63
2022/08/06 08:56:57;;;;;;;1.42;0.75;;;;;;;;;;4538645;28;20095;-63
2022/08/06 08:59:08;;;;;;;0.80;0.80;;;;;;;;;;4530099;28;20072;-64
2022/08/06 09:01:20;;;;;;;1.40;0.80;;;;;;;;;;4530681;28;20049;-63
2022/08/06 09:03:32;;;;;;;0.82;0.70;;;;;;;;;;4546916;28;20065;-62
2022/08/06 09:05:43;;;;;;;1.30;0.70;;;;;;;;;;4528773;28;20037;-63
2022/08/06 09:07:54;;;;;;;0.82;0.63;;;;;;;;;;4528236;28;20501;-63
2022/08/06 09:10:07;;;;;;;0.60;0.60;;;;;;;;;;4531948;28;20033;-63
2022/08/06 09:12:18;;;;;;;0.82;0.60;;;;;;;;;;4546209;28;20033;-63
2022/08/06 09:14:29;;;;;;;0.50;0.50;;;;;;;;;;4529076;28;20091;-64
2022/08/06 09:16:39;;;;;;;0.43;0.40;;;;;;;;;;4546702;28;20412;-64
2022/08/06 09:18:50;;;;;;;0.82;0.57;;;;;;;;;;4546018;28;20047;-64
2022/08/06 09:21:04;;;;;;;0.85;0.60;;;;;;;;;;4520190;28;20415;-64
2022/08/06 09:23:18;;;;;;;0.50;0.50;;;;;;;;;;4545833;28;20056;-64
2022/08/06 09:25:41;;;;;;;0.40;0.40;;;;;;;;;;4546034;28;20036;-64
2022/08/06 09:27:52;;;;;;;0.95;0.70;;;;;;;;;;4546763;28;21161;-64
2022/08/06 09:30:05;;;;;;;0.60;0.43;;;;;;;;;;4548374;28;20028;-64
2022/08/06 09:32:36;;;;;;;1.17;0.50;;;;;;;;;;4533051;28;20140;-64
2022/08/06 09:34:46;;;;;;;0.50;0.50;;;;;;;;;;4529666;28;20039;-65
2022/08/06 09:36:57;;;;;;;1.23;0.50;;;;;;;;;;4528778;28;20036;-64
2022/08/06 09:39:07;;;;;;;0.85;0.60;;;;;;;;;;4529136;28;20033;-64
2022/08/06 09:41:20;;;;;;;0.70;0.47;;;;;;;;;;4546015;28;20810;-64
2022/08/06 09:43:30;;;;;;;0.60;0.50;;;;;;;;;;4547956;28;20032;-65
2022/08/06 09:45:44;;;;;;;1.23;0.57;;;;;;;;;;4547100;28;20435;-64
2022/08/06 09:48:04;;;;;;;0.70;0.50;;;;;;;;;;4545551;28;20598;-64
2022/08/06 09:50:15;;;;;;;1.23;0.55;;;;;;;;;;4546739;28;20040;-64
2022/08/06 09:52:25;;;;;;;0.52;0.52;;;;;;;;;;4528209;28;20040;-64
2022/08/06 09:54:37;;;;;;;0.68;0.60;;;;;;;;;;4546523;28;20032;-65
2022/08/06 09:56:56;;;;;;;0.50;0.50;;;;;;;;;;4543469;28;20259;-65
2022/08/06 09:59:08;;;;;;;1.45;0.75;;;;;;;;;;4527967;28;20152;-64
2022/08/06 10:01:20;;;;;;;0.68;0.50;;;;;;;;;;4546637;28;20037;-64
2022/08/06 10:03:38;;;;;;;0.90;0.60;;;;;;;;;;4547625;28;20036;-64
2022/08/06 10:06:10;;;;;;;0.55;0.50;;;;;;;;;;4531996;28;20721;-64
2022/08/06 10:08:27;;;;;;;1.00;0.70;;;;;;;;;;4529238;28;20039;-64
2022/08/06 10:10:43;;;;;;;0.70;0.60;;;;;;;;;;4521786;28;20052;-64
2022/08/06 10:13:10;;;;;;;1.20;0.70;;;;;;;;;;4546602;28;20130;-64
2022/08/06 10:15:30;;;;;;;0.63;0.63;;;;;;;;;;4528298;28;20095;-64
2022/08/06 10:17:45;;;;;;;0.77;0.50;;;;;;;;;;4546211;28;20080;-64
2022/08/06 10:20:15;;;;;;;0.80;0.80;;;;;;;;;;4545970;28;20215;-64
2022/08/06 10:22:25;;;;;;;1.10;0.70;;;;;;;;;;4545630;28;20152;-64
2022/08/06 10:24:40;;;;;;;0.88;0.75;;;;;;;;;;4547749;28;20053;-64
2022/08/06 10:26:50;;;;;;;1.52;0.70;;;;;;;;;;4526843;28;20037;-64
2022/08/06 10:29:06;;;;;;;0.88;0.70;;;;;;;;;;4532378;28;20037;-64
2022/08/06 10:31:16;;;;;;;0.93;0.70;;;;;;;;;;4528630;28;20033;-65
2022/08/06 10:33:29;;;;;;;1.15;0.70;;;;;;;;;;4530786;28;20492;-64
2022/08/06 10:35:42;;;;;;;1.33;0.80;;;;;;;;;;4529401;28;20664;-64
2022/08/06 10:37:58;;;;;;;0.90;0.70;;;;;;;;;;4526490;28;20025;-64
2022/08/06 10:40:09;;;;;;;0.73;0.50;;;;;;;;;;4532149;28;20037;-64
2022/08/06 10:42:20;;;;;;;1.05;0.47;;;;;;;;;;4531996;28;20037;-65
2022/08/06 10:44:34;;;;;;;0.60;0.45;;;;;;;;;;4526856;28;20065;-65
2022/08/06 10:46:45;;;;;;;0.40;0.40;;;;;;;;;;4531511;28;20636;-64
2022/08/06 10:48:56;;;;;;;0.50;0.50;;;;;;;;;;4546472;28;20031;-65
2022/08/06 10:51:08;;;;;;;0.50;0.50;;;;;;;;;;4546643;28;20094;-65
2022/08/06 10:53:19;;;;;;;0.60;0.60;;;;;;;;;;4545320;28;20044;-64
2022/08/06 10:55:30;;;;;;;0.60;0.50;;;;;;;;;;4546365;28;20049;-64
2022/08/06 10:57:41;;;;;;;0.77;0.50;;;;;;;;;;4534269;28;20566;-65
2022/08/06 10:59:52;;;;;;;0.45;0.40;;;;;;;;;;4533327;28;20057;-65
2022/08/06 11:02:24;;;;;;;0.70;0.50;;;;;;;;;;4548285;28;20128;-65
2022/08/06 11:04:47;;;;;;;0.40;0.40;;;;;;;;;;4548795;28;20100;-64
2022/08/06 11:07:19;;;;;;;0.40;0.40;;;;;;;;;;4548044;28;20025;-64
2022/08/06 11:10:02;;;;;;;0.50;0.50;;;;;;;;;;4540090;28;20040;-64
2022/08/06 11:12:35;;;;;;;0.50;0.43;;;;;;;;;;4532501;28;20039;-65
2022/08/06 11:14:46;;;;;;;0.30;0.30;;;;;;;;;;4549046;28;20033;-64
2022/08/06 11:16:57;;;;;;;0.63;0.30;;;;;;;;;;4548632;28;20498;-64
2022/08/06 11:19:10;;;;;;;1.23;0.50;;;;;;;;;;4530381;28;20104;-65
2022/08/06 11:21:37;;;;;;;0.40;0.40;;;;;;;;;;4528700;28;20021;-65
2022/08/06 11:24:00;;;;;;;0.40;0.40;;;;;;;;;;4547425;28;20878;-65
2022/08/06 11:26:31;;;;;;;0.60;0.30;;;;;;;;;;4547393;28;20041;-65
2022/08/06 11:28:48;;;;;;;0.47;0.20;;;;;;;;;;4514592;28;20683;-65
2022/08/06 11:31:04;;;;;;;0.40;0.35;;;;;;;;;;4534046;28;20114;-65
2022/08/06 11:33:18;;;;;;;0.40;0.30;;;;;;;;;;4547450;28;20592;-64
2022/08/06 11:35:34;;;;;;;0.65;0.40;;;;;;;;;;4548923;28;20122;-64
2022/08/06 11:37:45;;;;;;;0.50;0.40;;;;;;;;;;4547980;28;20047;-63
2022/08/06 11:40:07;;;;;;;0.30;0.30;;;;;;;;;;4547864;28;20047;-64
2022/08/06 11:42:41;;;;;;;1.05;0.30;;;;;;;;;;4534075;28;20045;-67
2022/08/06 11:45:01;;;;;;;0.45;0.30;;;;;;;;;;4549285;28;20033;-67
2022/08/06 11:47:18;;;;;;;0.85;0.40;;;;;;;;;;4547894;28;20025;-66
2022/08/06 11:49:37;;;;;;;0.40;0.40;;;;;;;;;;4547391;28;20806;-67
2022/08/06 11:51:58;;;;;;;0.40;0.20;;;;;;;;;;4547668;28;20037;-67
2022/08/06 11:54:11;;;;;;;0.43;0.30;;;;;;;;;;4547656;28;20040;-67
2022/08/06 11:56:22;;;;;;;0.70;0.30;;;;;;;;;;4548530;28;20050;-67
2022/08/06 11:58:32;;;;;;;0.30;0.30;;;;;;;;;;4515863;28;20046;-67
2022/08/06 12:00:57;;;;;;;0.43;0.30;;;;;;;;;;4529750;28;20093;-67
2022/08/06 12:03:08;;;;;;;0.20;0.20;;;;;;;;;;4548280;28;20041;-67
2022/08/06 12:05:18;;;;;;;0.30;0.30;;;;;;;;;;4547871;28;20029;-66
2022/08/06 12:07:31;;;;;;;0.40;0.30;;;;;;;;;;4549162;28;20029;-66
2022/08/06 12:09:42;;;;;;;0.40;0.20;;;;;;;;;;4548719;28;20047;-66
2022/08/06 12:11:52;;;;;;;0.20;0.20;;;;;;;;;;4529270;28;20068;-66
2022/08/06 12:14:04;;;;;;;0.20;0.20;;;;;;;;;;4548460;28;20048;-66
2022/08/06 12:16:32;;;;;;;0.20;0.20;;;;;;;;;;4546938;28;20527;-66
2022/08/06 12:18:43;;;;;;;0.30;0.30;;;;;;;;;;4534951;28;20029;-66
2022/08/06 12:20:53;;;;;;;0.63;0.30;;;;;;;;;;4530736;28;20485;-66
2022/08/06 12:23:07;;;;;;;0.20;0.20;;;;;;;;;;4547705;28;20778;-63
2022/08/06 12:25:19;;;;;;;0.20;0.20;;;;;;;;;;4531433;28;20759;-66
2022/08/06 12:27:35;;;;;;;0.40;0.20;;;;;;;;;;4533381;28;20037;-66
2022/08/06 12:29:46;;;;;;;1.08;0.35;;;;;;;;;;4546846;28;20033;-66
2022/08/06 12:31:56;;;;;;;0.65;0.20;;;;;;;;;;4546929;28;20025;-66
2022/08/06 12:34:07;;;;;;;0.20;0.20;;;;;;;;;;4548148;28;20033;-65
2022/08/06 12:36:17;;;;;;;0.28;0.20;;;;;;;;;;4532838;28;20672;-66
2022/08/06 12:38:31;;;;;;;0.28;0.28;;;;;;;;;;4529618;28;20041;-66
2022/08/06 12:40:55;;;;;;;0.30;0.20;;;;;;;;;;4546313;28;20139;-66
2022/08/06 12:43:09;;;;;;;0.52;0.30;;;;;;;;;;4548360;28;20112;-66
2022/08/06 12:45:39;;;;;;;0.28;0.28;;;;;;;;;;4546781;28;20591;-66
2022/08/06 12:48:13;;;;;;;0.35;0.20;;;;;;;;;;4546470;28;20039;-65
2022/08/06 12:50:24;;;;;;;0.20;0.20;;;;;;;;;;4532833;28;20040;-66
2022/08/06 12:52:35;;;;;;;0.30;0.30;;;;;;;;;;4546357;28;20577;-66
2022/08/06 12:54:46;;;;;;;0.77;0.30;;;;;;;;;;4532305;28;20037;-66
2022/08/06 12:56:56;;;;;;;0.38;0.15;;;;;;;;;;4521587;28;20112;-65
2022/08/06 12:59:10;;;;;;;0.20;0.20;;;;;;;;;;4534574;28;20032;-66
2022/08/06 13:01:22;;;;;;;0.57;0.40;;;;;;;;;;4528422;28;20124;-65
2022/08/06 13:03:35;;;;;;;0.30;0.30;;;;;;;;;;4528587;28;20021;-66
2022/08/06 13:05:46;;;;;;;0.47;0.30;;;;;;;;;;4534195;28;20694;-65
2022/08/06 13:07:58;;;;;;;0.20;0.20;;;;;;;;;;4528117;28;20033;-66
2022/08/06 13:10:10;;;;;;;0.43;0.17;;;;;;;;;;4528703;28;20073;-66
2022/08/06 13:12:23;;;;;;;0.20;0.20;;;;;;;;;;4532353;28;20979;-66
2022/08/06 13:14:47;;;;;;;0.38;0.20;;;;;;;;;;4546729;28;20815;-66
2022/08/06 13:17:11;;;;;;;0.60;0.20;;;;;;;;;;4546907;28;20045;-67
2022/08/06 13:19:21;;;;;;;0.38;0.20;;;;;;;;;;4545607;28;20159;-66
2022/08/06 13:21:35;;;;;;;0.28;0.25;;;;;;;;;;4546831;28;20223;-66
2022/08/06 13:23:51;;;;;;;0.45;0.22;;;;;;;;;;4519499;28;20636;-66
2022/08/06 13:26:22;;;;;;;0.60;0.20;;;;;;;;;;4546970;28;21221;-66
2022/08/06 13:28:33;;;;;;;0.28;0.28;;;;;;;;;;4538870;28;20036;-65
2022/08/06 13:30:45;;;;;;;0.17;0.15;;;;;;;;;;4547238;28;20488;-66
2022/08/06 13:33:20;;;;;;;0.30;0.17;;;;;;;;;;4529277;28;20025;-66